createdAt,value
2018-08-14T00:00:56.799Z,17.8
2018-08-14T00:01:56.706Z,17.9
2018-08-14T00:03:02.863Z,17.9
2018-08-14T00:04:02.773Z,17.9
2018-08-14T00:05:02.942Z,18
2018-08-14T00:06:09.612Z,18
2018-08-14T00:07:09.538Z,18
2018-08-14T00:08:13.465Z,18
2018-08-14T00:09:13.402Z,17.9
2018-08-14T00:10:22.314Z,17.9
2018-08-14T00:11:22.890Z,18
2018-08-14T00:12:23.028Z,18
2018-08-14T00:13:23.428Z,18.1
2018-08-14T00:14:23.997Z,18.1
2018-08-14T00:15:23.925Z,18.1
2018-08-14T00:16:24.839Z,18.1
2018-08-14T00:17:25.770Z,18
2018-08-14T00:18:25.678Z,17.9
2018-08-14T00:19:29.479Z,17.9
2018-08-14T00:20:30.092Z,17.9
2018-08-14T00:21:30.020Z,17.9
2018-08-14T00:22:30.175Z,17.8
2018-08-14T00:23:32.226Z,17.8
2018-08-14T00:24:32.796Z,17.8
2018-08-14T00:25:32.732Z,17.8
2018-08-14T00:26:33.311Z,17.8
2018-08-14T00:27:33.242Z,17.8
2018-08-14T00:28:33.868Z,17.7
2018-08-14T00:29:33.996Z,17.6
2018-08-14T00:30:37.237Z,17.7
2018-08-14T00:31:37.146Z,17.7
2018-08-14T00:32:37.744Z,17.7
2018-08-14T00:33:38.761Z,17.7
2018-08-14T00:34:39.354Z,17.7
2018-08-14T00:35:40.001Z,17.7
2018-08-14T00:36:39.913Z,17.8
2018-08-14T00:37:40.853Z,17.8
2018-08-14T00:38:40.772Z,17.8
2018-08-14T00:39:40.675Z,17.8
2018-08-14T00:40:44.557Z,17.8
2018-08-14T00:41:44.482Z,17.8
2018-08-14T00:42:45.984Z,17.8
2018-08-14T00:43:50.021Z,17.8
2018-08-14T00:44:49.932Z,17.8
2018-08-14T00:45:50.316Z,17.8
2018-08-14T00:46:50.881Z,17.8
2018-08-14T00:47:50.796Z,17.8
2018-08-14T00:48:51.393Z,17.8
2018-08-14T00:49:51.300Z,17.8
2018-08-14T00:50:54.887Z,17.8
2018-08-14T00:51:55.465Z,17.8
2018-08-14T00:52:58.383Z,17.8
2018-08-14T00:53:59.735Z,17.9
2018-08-14T00:54:59.656Z,17.8
2018-08-14T00:56:00.246Z,17.8
2018-08-14T00:57:00.156Z,17.8
2018-08-14T00:58:00.077Z,17.7
2018-08-14T00:59:00.223Z,17.8
2018-08-14T01:00:00.176Z,17.7
2018-08-14T01:01:00.770Z,17.8
2018-08-14T01:02:00.705Z,17.7
2018-08-14T01:03:01.322Z,17.7
2018-08-14T01:04:04.610Z,17.7
2018-08-14T01:05:08.313Z,17.7
2018-08-14T01:06:08.503Z,17.7
2018-08-14T01:07:08.426Z,17.6
2018-08-14T01:08:09.015Z,17.6
2018-08-14T01:09:08.927Z,17.6
2018-08-14T01:10:33.617Z,17.5
2018-08-14T01:11:33.545Z,17.5
2018-08-14T01:12:34.458Z,17.5
2018-08-14T01:13:34.574Z,17.5
2018-08-14T01:14:38.937Z,17.4
2018-08-14T01:15:38.861Z,17.4
2018-08-14T01:16:38.790Z,17.5
2018-08-14T01:17:38.732Z,17.4
2018-08-14T01:18:38.868Z,17.4
2018-08-14T01:19:38.779Z,17.4
2018-08-14T01:20:38.709Z,17.4
2018-08-14T01:21:41.777Z,17.4
2018-08-14T01:22:42.392Z,17.3
2018-08-14T01:23:42.316Z,17.3
2018-08-14T01:24:42.955Z,17.2
2018-08-14T01:25:43.357Z,17.2
2018-08-14T01:26:43.279Z,17.1
2018-08-14T01:27:43.419Z,17.1
2018-08-14T01:28:43.775Z,17.2
2018-08-14T01:29:43.693Z,17.4
2018-08-14T01:30:43.596Z,17.4
2018-08-14T01:31:47.176Z,17.5
2018-08-14T01:32:48.083Z,17.5
2018-08-14T01:33:47.997Z,17.6
2018-08-14T01:34:48.588Z,17.6
2018-08-14T01:35:48.936Z,17.6
2018-08-14T01:36:48.880Z,17.7
2018-08-14T01:37:49.016Z,17.7
2018-08-14T01:38:48.930Z,17.6
2018-08-14T01:39:48.863Z,17.6
2018-08-14T01:40:48.783Z,17.6
2018-08-14T01:41:49.605Z,17.6
2018-08-14T01:42:49.544Z,17.5
2018-08-14T01:43:49.451Z,17.5
2018-08-14T01:44:56.609Z,17.5
2018-08-14T01:45:56.525Z,17.4
2018-08-14T01:46:56.419Z,17.4
2018-08-14T01:47:59.924Z,17.4
2018-08-14T01:49:00.499Z,17.4
2018-08-14T01:50:01.525Z,17.4
2018-08-14T01:51:04.985Z,17.4
2018-08-14T01:52:04.942Z,17.4
2018-08-14T01:53:04.935Z,17.4
2018-08-14T01:54:07.080Z,17.3
2018-08-14T01:55:08.163Z,17.2
2018-08-14T01:56:08.305Z,17.3
2018-08-14T01:57:08.887Z,17.3
2018-08-14T01:58:09.052Z,17.3
2018-08-14T01:59:08.967Z,17.3
2018-08-14T02:00:14.784Z,17.3
2018-08-14T02:01:14.711Z,17.3
2018-08-14T02:02:14.624Z,17.3
2018-08-14T02:03:18.212Z,17.3
2018-08-14T02:04:18.117Z,17.3
2018-08-14T02:05:25.535Z,17.3
2018-08-14T02:06:26.113Z,17.3
2018-08-14T02:07:34.733Z,17.3
2018-08-14T02:08:34.650Z,17.2
2018-08-14T02:09:34.555Z,17.3
2018-08-14T02:10:34.703Z,17.1
2018-08-14T02:11:34.851Z,17.1
2018-08-14T02:12:35.747Z,17.1
2018-08-14T02:13:38.655Z,17.1
2018-08-14T02:14:38.786Z,17.1
2018-08-14T02:15:42.353Z,17.1
2018-08-14T02:16:42.267Z,17.1
2018-08-14T02:17:46.838Z,17.1
2018-08-14T02:18:46.764Z,17.2
2018-08-14T02:19:52.710Z,17.2
2018-08-14T02:20:52.615Z,17.1
2018-08-14T02:22:04.415Z,17.1
2018-08-14T02:23:04.321Z,17.1
2018-08-14T02:24:05.033Z,17.1
2018-08-14T02:25:04.951Z,17.1
2018-08-14T02:26:05.345Z,17.1
2018-08-14T02:27:05.300Z,17.1
2018-08-14T02:28:05.900Z,17.1
2018-08-14T02:29:10.511Z,17.1
2018-08-14T02:30:10.425Z,17
2018-08-14T02:31:10.326Z,17
2018-08-14T02:32:14.310Z,17
2018-08-14T02:33:14.212Z,16.9
2018-08-14T02:34:14.718Z,17
2018-08-14T02:35:14.639Z,17
2018-08-14T02:36:18.310Z,16.9
2018-08-14T02:37:18.481Z,17
2018-08-14T02:38:21.126Z,16.9
2018-08-14T02:39:24.899Z,16.8
2018-08-14T02:40:24.857Z,16.9
2018-08-14T02:41:30.672Z,16.9
2018-08-14T02:42:30.583Z,16.8
2018-08-14T02:43:30.495Z,16.8
2018-08-14T02:44:30.671Z,16.7
2018-08-14T02:45:30.610Z,16.8
2018-08-14T02:46:32.647Z,16.8
2018-08-14T02:47:39.992Z,16.7
2018-08-14T02:48:39.916Z,16.8
2018-08-14T02:49:40.575Z,16.7
2018-08-14T02:50:40.481Z,16.8
2018-08-14T02:51:42.123Z,16.8
2018-08-14T02:52:42.495Z,16.8
2018-08-14T02:53:42.413Z,16.8
2018-08-14T02:54:42.348Z,16.8
2018-08-14T02:55:42.732Z,16.9
2018-08-14T02:56:43.072Z,16.9
2018-08-14T02:57:43.598Z,16.9
2018-08-14T02:58:43.996Z,16.9
2018-08-14T02:59:43.940Z,16.9
2018-08-14T03:00:44.527Z,17
2018-08-14T03:01:45.109Z,16.9
2018-08-14T03:02:45.268Z,17
2018-08-14T03:03:45.177Z,17
2018-08-14T03:04:45.569Z,16.9
2018-08-14T03:05:45.481Z,16.9
2018-08-14T03:06:49.702Z,16.9
2018-08-14T03:07:49.606Z,16.9
2018-08-14T03:08:49.514Z,16.9
2018-08-14T03:09:59.220Z,17
2018-08-14T03:10:59.126Z,16.9
2018-08-14T03:12:03.960Z,17
2018-08-14T03:13:08.434Z,17
2018-08-14T03:14:11.180Z,17
2018-08-14T03:15:11.783Z,17
2018-08-14T03:16:12.375Z,16.9
2018-08-14T03:17:12.798Z,16.9
2018-08-14T03:18:13.388Z,17
2018-08-14T03:19:13.316Z,17
2018-08-14T03:20:14.281Z,17
2018-08-14T03:21:14.201Z,17
2018-08-14T03:22:14.797Z,17.1
2018-08-14T03:23:14.710Z,17.1
2018-08-14T03:24:19.676Z,17.2
2018-08-14T03:25:19.629Z,17.2
2018-08-14T03:26:19.552Z,17.2
2018-08-14T03:27:19.929Z,17.2
2018-08-14T03:28:23.521Z,17.3
2018-08-14T03:29:23.429Z,17.3
2018-08-14T03:30:23.609Z,17.3
2018-08-14T03:31:23.533Z,17.2
2018-08-14T03:32:23.475Z,17.2
2018-08-14T03:33:23.505Z,17.1
2018-08-14T03:34:23.426Z,17.1
2018-08-14T03:35:23.347Z,17.1
2018-08-14T03:36:23.296Z,17.1
2018-08-14T03:37:24.102Z,17.1
2018-08-14T03:38:24.235Z,17.1
2018-08-14T03:39:25.342Z,17
2018-08-14T03:40:25.266Z,17.1
2018-08-14T03:41:25.869Z,17.1
2018-08-14T03:42:25.802Z,17.1
2018-08-14T03:43:25.716Z,17.1
2018-08-14T03:44:25.636Z,17.2
2018-08-14T03:45:25.783Z,17.2
2018-08-14T03:46:25.936Z,17.2
2018-08-14T03:47:26.350Z,17.2
2018-08-14T03:48:26.716Z,17.1
2018-08-14T03:49:26.851Z,17.1
2018-08-14T03:50:26.782Z,17.1
2018-08-14T03:51:26.717Z,17.1
2018-08-14T03:52:26.665Z,17
2018-08-14T03:53:26.585Z,17
2018-08-14T03:54:26.510Z,17
2018-08-14T03:55:26.634Z,17
2018-08-14T03:56:26.574Z,17
2018-08-14T03:57:30.864Z,17
2018-08-14T03:58:30.786Z,16.9
2018-08-14T03:59:35.384Z,16.9
2018-08-14T04:00:38.813Z,16.9
2018-08-14T04:01:38.748Z,16.9
2018-08-14T04:02:38.668Z,16.9
2018-08-14T04:03:38.784Z,16.9
2018-08-14T04:04:38.687Z,16.9
2018-08-14T04:05:38.598Z,16.9
2018-08-14T04:06:43.125Z,16.8
2018-08-14T04:07:43.723Z,16.8
2018-08-14T04:08:43.673Z,16.8
2018-08-14T04:09:47.404Z,16.8
2018-08-14T04:10:47.981Z,16.8
2018-08-14T04:11:47.931Z,16.7
2018-08-14T04:12:47.872Z,16.8
2018-08-14T04:13:47.794Z,16.8
2018-08-14T04:14:47.942Z,16.7
2018-08-14T04:15:48.109Z,16.7
2018-08-14T04:16:48.029Z,16.7
2018-08-14T04:17:48.689Z,16.6
2018-08-14T04:18:49.506Z,16.6
2018-08-14T04:19:49.421Z,16.6
2018-08-14T04:20:49.574Z,16.6
2018-08-14T04:21:49.484Z,16.6
2018-08-14T04:22:50.093Z,16.6
2018-08-14T04:23:51.024Z,16.7
2018-08-14T04:24:50.947Z,16.7
2018-08-14T04:25:51.560Z,16.6
2018-08-14T04:26:51.826Z,16.6
2018-08-14T04:27:52.417Z,16.6
2018-08-14T04:28:52.323Z,16.6
2018-08-14T04:29:55.129Z,16.5
2018-08-14T04:30:55.071Z,16.6
2018-08-14T04:31:57.986Z,16.6
2018-08-14T04:32:57.926Z,16.6
2018-08-14T04:33:57.848Z,16.6
2018-08-14T04:34:58.016Z,16.6
2018-08-14T04:35:57.939Z,16.6
2018-08-14T04:37:01.116Z,16.6
2018-08-14T04:38:01.521Z,16.6
2018-08-14T04:39:01.693Z,16.6
2018-08-14T04:40:01.833Z,16.6
2018-08-14T04:41:01.767Z,16.6
2018-08-14T04:42:01.704Z,16.6
2018-08-14T04:43:01.628Z,16.6
2018-08-14T04:44:05.064Z,16.6
2018-08-14T04:45:05.968Z,16.6
2018-08-14T04:46:10.045Z,16.7
2018-08-14T04:47:13.524Z,16.6
2018-08-14T04:48:20.560Z,16.6
2018-08-14T04:49:23.646Z,16.6
2018-08-14T04:50:31.898Z,16.6
2018-08-14T04:51:33.481Z,16.7
2018-08-14T04:52:36.380Z,16.7
2018-08-14T04:53:39.678Z,16.8
2018-08-14T04:54:43.189Z,16.8
2018-08-14T04:55:45.827Z,16.9
2018-08-14T04:56:46.981Z,16.9
2018-08-14T04:57:47.894Z,16.9
2018-08-14T04:58:55.332Z,16.8
2018-08-14T04:59:58.840Z,16.9
2018-08-14T05:01:01.936Z,16.9
2018-08-14T05:02:03.858Z,16.9
2018-08-14T05:03:07.559Z,16.8
2018-08-14T05:04:10.669Z,16.8
2018-08-14T05:05:23.248Z,16.9
2018-08-14T05:06:32.072Z,16.9
2018-08-14T05:07:32.004Z,16.9
2018-08-14T05:08:35.900Z,16.9
2018-08-14T05:09:39.483Z,16.9
2018-08-14T05:10:43.190Z,16.9
2018-08-14T05:11:43.095Z,16.9
2018-08-14T05:12:47.129Z,16.9
2018-08-14T05:13:50.858Z,16.9
2018-08-14T05:15:11.529Z,16.9
2018-08-14T05:16:11.476Z,16.9
2018-08-14T05:17:14.035Z,16.9
2018-08-14T05:18:16.504Z,16.9
2018-08-14T05:19:29.032Z,16.9
2018-08-14T05:20:30.734Z,16.9
2018-08-14T05:21:30.657Z,17
2018-08-14T05:22:30.580Z,17
2018-08-14T05:23:30.752Z,16.9
2018-08-14T05:24:31.960Z,17
2018-08-14T05:25:31.891Z,16.9
2018-08-14T05:26:35.388Z,17
2018-08-14T05:27:41.772Z,17
2018-08-14T05:28:41.699Z,17
2018-08-14T05:29:41.698Z,17
2018-08-14T05:30:42.320Z,16.9
2018-08-14T05:31:45.498Z,17
2018-08-14T05:32:45.416Z,16.9
2018-08-14T05:33:49.541Z,16.9
2018-08-14T05:34:49.979Z,16.9
2018-08-14T05:35:53.880Z,17
2018-08-14T05:37:03.633Z,16.9
2018-08-14T05:38:05.585Z,16.9
2018-08-14T05:39:09.549Z,16.9
2018-08-14T05:40:14.380Z,16.9
2018-08-14T05:41:17.885Z,16.9
2018-08-14T05:42:17.794Z,16.9
2018-08-14T05:43:21.889Z,16.9
2018-08-14T05:44:28.713Z,17
2018-08-14T05:45:28.648Z,17
2018-08-14T05:46:37.410Z,17
2018-08-14T05:47:37.322Z,17
2018-08-14T05:48:46.116Z,16.9
2018-08-14T05:49:49.577Z,17
2018-08-14T05:50:53.060Z,17
2018-08-14T05:51:57.890Z,17
2018-08-14T05:52:57.969Z,17
2018-08-14T05:53:59.254Z,16.9
2018-08-14T05:55:02.624Z,16.9
2018-08-14T05:56:08.934Z,17
2018-08-14T05:57:08.853Z,16.9
2018-08-14T05:58:17.786Z,16.9
2018-08-14T05:59:17.732Z,16.9
2018-08-14T06:00:18.730Z,16.9
2018-08-14T06:01:25.499Z,16.9
2018-08-14T06:02:26.094Z,16.9
2018-08-14T06:03:26.059Z,16.8
2018-08-14T06:04:26.033Z,16.8
2018-08-14T06:05:25.948Z,16.8
2018-08-14T06:06:26.149Z,16.9
2018-08-14T06:07:26.056Z,16.9
2018-08-14T06:08:30.001Z,16.9
2018-08-14T06:09:33.124Z,16.9
2018-08-14T06:10:33.046Z,16.8
2018-08-14T06:11:33.229Z,16.8
2018-08-14T06:12:33.810Z,16.8
2018-08-14T06:13:33.961Z,16.8
2018-08-14T06:14:34.082Z,16.8
2018-08-14T06:15:39.128Z,16.8
2018-08-14T06:16:42.630Z,16.8
2018-08-14T06:17:42.533Z,16.8
2018-08-14T06:18:42.471Z,16.5
2018-08-14T06:19:42.426Z,16.3
2018-08-14T06:20:42.358Z,16.4
2018-08-14T06:21:43.898Z,16.5
2018-08-14T06:22:44.491Z,16.5
2018-08-14T06:23:45.413Z,16.5
2018-08-14T06:24:46.332Z,16.6
2018-08-14T06:25:47.578Z,16.7
2018-08-14T06:26:47.513Z,16.7
2018-08-14T06:27:47.696Z,16.7
2018-08-14T06:28:47.596Z,16.8
2018-08-14T06:29:47.539Z,16.8
2018-08-14T06:30:48.730Z,16.8
2018-08-14T06:31:52.340Z,16.9
2018-08-14T06:32:55.922Z,16.9
2018-08-14T06:33:59.717Z,16.9
2018-08-14T06:34:59.642Z,16.9
2018-08-14T06:35:59.808Z,16.9
2018-08-14T06:37:03.345Z,16.9
2018-08-14T06:38:04.344Z,16.9
2018-08-14T06:39:04.972Z,17.1
2018-08-14T06:40:04.889Z,17.1
2018-08-14T06:41:08.515Z,17.2
2018-08-14T06:42:08.656Z,17.2
2018-08-14T06:43:09.071Z,17.3
2018-08-14T06:44:11.710Z,17.3
2018-08-14T06:45:12.676Z,17.3
2018-08-14T06:46:12.583Z,17.4
2018-08-14T06:47:15.315Z,17.1
2018-08-14T06:48:18.869Z,16.9
2018-08-14T06:49:19.477Z,17
2018-08-14T06:50:25.206Z,17.1
2018-08-14T06:51:28.861Z,17.1
2018-08-14T06:52:31.793Z,17.1
2018-08-14T06:53:35.205Z,17.2
2018-08-14T06:54:35.529Z,17.2
2018-08-14T06:55:38.974Z,17.3
2018-08-14T06:56:38.903Z,17.4
2018-08-14T06:57:39.942Z,17.5
2018-08-14T06:58:39.858Z,17.5
2018-08-14T06:59:39.798Z,17.6
2018-08-14T07:00:42.615Z,17.7
2018-08-14T07:01:46.734Z,17.7
2018-08-14T07:02:49.684Z,17.7
2018-08-14T07:03:54.042Z,17.7
2018-08-14T07:04:54.011Z,17.7
2018-08-14T07:05:54.175Z,17.7
2018-08-14T07:07:02.716Z,17.7
2018-08-14T07:08:02.646Z,17.7
2018-08-14T07:09:11.406Z,17.6
2018-08-14T07:10:14.576Z,17.7
2018-08-14T07:11:14.511Z,17.7
2018-08-14T07:12:22.402Z,17.5
2018-08-14T07:13:23.367Z,17.5
2018-08-14T07:14:29.508Z,17.5
2018-08-14T07:15:29.691Z,17.6
2018-08-14T07:16:33.064Z,17.6
2018-08-14T07:17:36.023Z,17.7
2018-08-14T07:18:36.165Z,17.6
2018-08-14T07:19:39.248Z,17.7
2018-08-14T07:20:39.181Z,17.8
2018-08-14T07:21:39.161Z,17.8
2018-08-14T07:22:40.120Z,17.8
2018-08-14T07:23:42.659Z,17.8
2018-08-14T07:24:43.072Z,17.9
2018-08-14T07:25:42.979Z,18
2018-08-14T07:26:46.375Z,18
2018-08-14T07:27:46.786Z,18
2018-08-14T07:28:47.705Z,18
2018-08-14T07:29:47.650Z,18
2018-08-14T07:30:47.796Z,18
2018-08-14T07:31:54.017Z,18
2018-08-14T07:32:53.978Z,18
2018-08-14T07:33:54.187Z,18
2018-08-14T07:35:00.969Z,18
2018-08-14T07:36:01.133Z,18
2018-08-14T07:37:13.157Z,17.9
2018-08-14T07:38:13.169Z,17.9
2018-08-14T07:39:13.153Z,17.9
2018-08-14T07:40:15.963Z,17.9
2018-08-14T07:41:15.934Z,17.9
2018-08-14T07:42:16.045Z,18
2018-08-14T07:43:16.980Z,18
2018-08-14T07:44:20.892Z,18
2018-08-14T07:45:27.220Z,17.9
2018-08-14T07:46:27.131Z,18
2018-08-14T07:47:32.902Z,17.9
2018-08-14T07:48:32.905Z,18
2018-08-14T07:49:32.835Z,18
2018-08-14T07:50:32.816Z,17.9
2018-08-14T07:51:37.729Z,17.8
2018-08-14T07:52:38.077Z,17.9
2018-08-14T07:53:38.007Z,17.9
2018-08-14T07:54:40.921Z,17.8
2018-08-14T07:55:42.976Z,17.8
2018-08-14T07:56:42.891Z,17.8
2018-08-14T07:57:43.239Z,17.8
2018-08-14T07:58:43.266Z,17.8
2018-08-14T07:59:48.442Z,17.8
2018-08-14T08:00:49.379Z,17.9
2018-08-14T08:01:49.743Z,17.9
2018-08-14T08:02:49.899Z,17.9
2018-08-14T08:03:50.849Z,17.9
2018-08-14T08:04:51.828Z,18
2018-08-14T08:05:52.237Z,18
2018-08-14T08:06:52.164Z,18.1
2018-08-14T08:07:53.114Z,18.2
2018-08-14T08:08:53.492Z,18.2
2018-08-14T08:09:53.423Z,18.3
2018-08-14T08:10:56.151Z,18.4
2018-08-14T08:11:56.151Z,18.4
2018-08-14T08:12:59.362Z,18.5
2018-08-14T08:13:59.264Z,18.6
2018-08-14T08:15:02.402Z,18.6
2018-08-14T08:16:05.829Z,18.7
2018-08-14T08:17:05.795Z,18.8
2018-08-14T08:18:05.759Z,18.8
2018-08-14T08:19:05.682Z,18.8
2018-08-14T08:20:06.279Z,18.9
2018-08-14T08:21:07.207Z,18.9
2018-08-14T08:22:07.140Z,18.8
2018-08-14T08:23:07.330Z,18.8
2018-08-14T08:24:07.235Z,18.9
2018-08-14T08:25:17.397Z,18.9
2018-08-14T08:26:18.201Z,18.8
2018-08-14T08:27:18.110Z,18.8
2018-08-14T08:28:28.843Z,18.9
2018-08-14T08:29:28.771Z,18.9
2018-08-14T08:30:28.726Z,19
2018-08-14T08:31:28.932Z,19
2018-08-14T08:32:29.190Z,19
2018-08-14T08:33:31.850Z,19
2018-08-14T08:34:31.926Z,19
2018-08-14T08:35:32.395Z,19.1
2018-08-14T08:36:33.818Z,19.1
2018-08-14T08:37:33.728Z,19.1
2018-08-14T08:38:33.647Z,19.2
2018-08-14T08:39:33.583Z,19.2
2018-08-14T08:40:42.175Z,19.1
2018-08-14T08:41:42.215Z,19.2
2018-08-14T08:42:42.475Z,19.3
2018-08-14T08:43:42.388Z,19.3
2018-08-14T08:44:45.245Z,19.3
2018-08-14T08:45:45.219Z,19.3
2018-08-14T08:46:45.602Z,19.3
2018-08-14T08:47:46.512Z,19.4
2018-08-14T08:48:46.474Z,19.3
2018-08-14T08:49:46.646Z,19.3
2018-08-14T08:50:46.574Z,19.4
2018-08-14T08:51:46.715Z,19.4
2018-08-14T08:52:46.643Z,19.3
2018-08-14T08:53:49.514Z,19.3
2018-08-14T08:54:49.425Z,19.4
2018-08-14T08:55:50.348Z,19.4
2018-08-14T08:56:50.777Z,19.5
2018-08-14T08:57:51.695Z,19.4
2018-08-14T08:58:51.607Z,19.4
2018-08-14T08:59:54.100Z,19.6
2018-08-14T09:00:54.028Z,19.7
2018-08-14T09:01:53.970Z,19.8
2018-08-14T09:02:53.918Z,19.9
2018-08-14T09:03:54.032Z,19.9
2018-08-14T09:04:54.266Z,19.9
2018-08-14T09:05:54.446Z,19.9
2018-08-14T09:06:56.027Z,19.9
2018-08-14T09:07:55.939Z,19.9
2018-08-14T09:08:55.850Z,19.9
2018-08-14T09:09:58.657Z,20
2018-08-14T09:10:58.592Z,20
2018-08-14T09:11:59.167Z,20.1
2018-08-14T09:12:59.292Z,20.2
2018-08-14T09:13:59.252Z,20.4
2018-08-14T09:14:59.176Z,20.4
2018-08-14T09:15:59.090Z,20.5
2018-08-14T09:17:07.828Z,20.5
2018-08-14T09:18:10.907Z,20.5
2018-08-14T09:19:11.381Z,20.6
2018-08-14T09:20:11.293Z,20.6
2018-08-14T09:21:11.224Z,20.6
2018-08-14T09:22:12.206Z,20.7
2018-08-14T09:23:12.116Z,20.6
2018-08-14T09:24:12.011Z,20.5
2018-08-14T09:25:11.930Z,20.6
2018-08-14T09:26:14.829Z,20.6
2018-08-14T09:27:15.181Z,20.6
2018-08-14T09:28:16.100Z,20.5
2018-08-14T09:29:16.005Z,20.5
2018-08-14T09:30:15.964Z,20.5
2018-08-14T09:31:15.885Z,20.6
2018-08-14T09:32:15.839Z,20.6
2018-08-14T09:33:15.749Z,20.5
2018-08-14T09:34:15.654Z,20.6
2018-08-14T09:35:15.555Z,20.6
2018-08-14T09:36:16.531Z,20.7
2018-08-14T09:37:17.062Z,20.8
2018-08-14T09:38:16.990Z,20.9
2018-08-14T09:39:17.133Z,21
2018-08-14T09:40:17.283Z,21
2018-08-14T09:41:17.199Z,21.1
2018-08-14T09:42:17.111Z,21
2018-08-14T09:43:17.069Z,20.8
2018-08-14T09:44:17.012Z,20.9
2018-08-14T09:45:16.969Z,21.1
2018-08-14T09:46:16.905Z,21.2
2018-08-14T09:47:17.327Z,21.4
2018-08-14T09:48:17.281Z,21.6
2018-08-14T09:49:17.184Z,21.7
2018-08-14T09:50:17.087Z,21.9
2018-08-14T09:51:17.049Z,22
2018-08-14T09:52:17.968Z,21.9
2018-08-14T09:53:17.892Z,22
2018-08-14T09:54:20.499Z,21.9
2018-08-14T09:55:21.806Z,21.9
2018-08-14T09:56:21.718Z,21.8
2018-08-14T09:57:22.524Z,21.7
2018-08-14T09:58:25.012Z,21.7
2018-08-14T09:59:25.922Z,21.6
2018-08-14T10:00:25.848Z,21.6
2018-08-14T10:01:25.848Z,21.4
2018-08-14T10:02:25.750Z,21.5
2018-08-14T10:03:25.666Z,21.6
2018-08-14T10:04:26.045Z,21.7
2018-08-14T10:05:25.958Z,21.7
2018-08-14T10:06:28.680Z,21.7
2018-08-14T10:07:32.094Z,21.7
2018-08-14T10:08:32.016Z,21.6
2018-08-14T10:09:31.929Z,21.7
2018-08-14T10:10:31.836Z,21.7
2018-08-14T10:11:31.768Z,21.6
2018-08-14T10:12:31.680Z,21.6
2018-08-14T10:13:31.853Z,21.6
2018-08-14T10:14:31.769Z,21.6
2018-08-14T10:15:31.676Z,21.7
2018-08-14T10:16:31.590Z,21.8
2018-08-14T10:17:32.203Z,21.8
2018-08-14T10:18:33.168Z,21.9
2018-08-14T10:19:33.065Z,22
2018-08-14T10:20:33.010Z,22
2018-08-14T10:21:32.919Z,22.1
2018-08-14T10:22:32.851Z,22.2
2018-08-14T10:23:33.041Z,22.1
2018-08-14T10:24:32.954Z,22.1
2018-08-14T10:25:32.883Z,22.1
2018-08-14T10:26:33.228Z,22
2018-08-14T10:27:36.622Z,21.9
2018-08-14T10:28:36.912Z,21.8
2018-08-14T10:29:37.281Z,21.9
2018-08-14T10:30:37.191Z,21.9
2018-08-14T10:31:37.131Z,21.9
2018-08-14T10:32:37.071Z,21.8
2018-08-14T10:33:36.995Z,21.8
2018-08-14T10:34:36.924Z,21.9
2018-08-14T10:35:36.843Z,21.9
2018-08-14T10:36:36.782Z,21.8
2018-08-14T10:37:37.142Z,21.9
2018-08-14T10:38:38.077Z,22
2018-08-14T10:39:38.146Z,22.1
2018-08-14T10:40:38.370Z,22.2
2018-08-14T10:41:38.286Z,22.1
2018-08-14T10:42:38.230Z,22.2
2018-08-14T10:43:38.159Z,22.2
2018-08-14T10:44:38.087Z,22.3
2018-08-14T10:45:38.066Z,22.4
2018-08-14T10:46:38.004Z,22.5
2018-08-14T10:47:41.291Z,22.5
2018-08-14T10:48:41.202Z,22.4
2018-08-14T10:49:42.146Z,22.2
2018-08-14T10:50:42.067Z,22.3
2018-08-14T10:51:44.751Z,22.2
2018-08-14T10:52:44.688Z,22.2
2018-08-14T10:53:53.639Z,22.2
2018-08-14T10:54:53.556Z,22.2
2018-08-14T10:55:53.739Z,22.2
2018-08-14T10:56:53.672Z,22.2
2018-08-14T10:57:54.056Z,22.1
2018-08-14T10:58:53.999Z,22.1
2018-08-14T10:59:53.926Z,22.1
2018-08-14T11:00:54.054Z,22.2
2018-08-14T11:01:53.951Z,22.2
2018-08-14T11:02:53.904Z,22.2
2018-08-14T11:03:53.841Z,22.1
2018-08-14T11:04:53.968Z,22.2
2018-08-14T11:05:54.348Z,22.2
2018-08-14T11:06:54.264Z,21.4
2018-08-14T11:07:54.654Z,21.5
2018-08-14T11:08:55.569Z,21.8
2018-08-14T11:09:55.505Z,22
2018-08-14T11:10:58.426Z,22.1
2018-08-14T11:11:58.320Z,22.1
2018-08-14T11:12:58.233Z,22
2018-08-14T11:13:58.358Z,22.1
2018-08-14T11:14:58.283Z,22.2
2018-08-14T11:15:58.208Z,22.3
2018-08-14T11:16:59.120Z,22.3
2018-08-14T11:17:59.509Z,22.3
2018-08-14T11:18:59.446Z,22.4
2018-08-14T11:19:59.391Z,22.4
2018-08-14T11:21:02.392Z,22.5
2018-08-14T11:22:05.323Z,22.4
2018-08-14T11:23:05.234Z,22.4
2018-08-14T11:24:05.131Z,22.4
2018-08-14T11:25:05.320Z,22.4
2018-08-14T11:26:05.247Z,22.3
2018-08-14T11:27:05.415Z,22.4
2018-08-14T11:28:05.755Z,22.3
2018-08-14T11:29:05.658Z,22.1
2018-08-14T11:30:05.560Z,21.9
2018-08-14T11:31:05.507Z,22
2018-08-14T11:32:08.113Z,22.2
2018-08-14T11:33:08.036Z,22.4
2018-08-14T11:34:07.968Z,22.3
2018-08-14T11:35:08.106Z,22.3
2018-08-14T11:36:11.021Z,22.4
2018-08-14T11:37:10.962Z,22.4
2018-08-14T11:38:11.352Z,22.3
2018-08-14T11:39:11.253Z,22.2
2018-08-14T11:40:11.189Z,22.1
2018-08-14T11:41:11.141Z,22.1
2018-08-14T11:42:11.068Z,22.2
2018-08-14T11:43:10.977Z,22.2
2018-08-14T11:44:10.894Z,22.2
2018-08-14T11:45:10.867Z,22.2
2018-08-14T11:46:10.826Z,22.2
2018-08-14T11:47:10.734Z,22.1
2018-08-14T11:48:11.114Z,22.1
2018-08-14T11:49:12.043Z,22.1
2018-08-14T11:50:11.946Z,22
2018-08-14T11:51:12.908Z,21.9
2018-08-14T11:52:12.814Z,21.9
2018-08-14T11:53:12.725Z,21.8
2018-08-14T11:54:12.628Z,21.8
2018-08-14T11:55:12.530Z,21.8
2018-08-14T11:56:12.443Z,21.7
2018-08-14T11:57:12.393Z,21.8
2018-08-14T11:58:12.777Z,21.7
2018-08-14T11:59:12.719Z,21.7
2018-08-14T12:00:12.630Z,21.7
2018-08-14T12:01:12.544Z,21.7
2018-08-14T12:02:12.461Z,21.7
2018-08-14T12:03:12.401Z,21.7
2018-08-14T12:04:12.300Z,21.7
2018-08-14T12:05:12.226Z,21.6
2018-08-14T12:06:12.155Z,21.6
2018-08-14T12:07:14.904Z,21.5
2018-08-14T12:08:15.242Z,21.6
2018-08-14T12:09:15.144Z,21.6
2018-08-14T12:10:15.057Z,21.6
2018-08-14T12:11:15.149Z,21.6
2018-08-14T12:12:15.375Z,21.6
2018-08-14T12:13:15.286Z,21.6
2018-08-14T12:14:15.189Z,21.6
2018-08-14T12:15:15.112Z,21.6
2018-08-14T12:16:15.154Z,21.5
2018-08-14T12:17:15.113Z,21.5
2018-08-14T12:18:15.524Z,21.6
2018-08-14T12:19:15.448Z,21.6
2018-08-14T12:20:15.350Z,21.4
2018-08-14T12:21:15.252Z,21.4
2018-08-14T12:22:15.160Z,21.5
2018-08-14T12:23:15.082Z,21.5
2018-08-14T12:24:15.000Z,21.5
2018-08-14T12:25:14.902Z,21.6
2018-08-14T12:26:14.834Z,21.5
2018-08-14T12:27:14.838Z,21.5
2018-08-14T12:28:15.411Z,21.5
2018-08-14T12:29:15.325Z,21.5
2018-08-14T12:30:15.252Z,21.5
2018-08-14T12:31:15.209Z,21.6
2018-08-14T12:32:15.105Z,21.5
2018-08-14T12:33:15.031Z,21.5
2018-08-14T12:34:14.943Z,21.5
2018-08-14T12:35:14.852Z,21.4
2018-08-14T12:36:14.780Z,21.4
2018-08-14T12:37:14.690Z,21.4
2018-08-14T12:38:15.106Z,21.5
2018-08-14T12:39:15.035Z,21.5
2018-08-14T12:40:15.312Z,21.6
2018-08-14T12:41:15.384Z,21.6
2018-08-14T12:42:15.289Z,21.7
2018-08-14T12:43:15.192Z,21.6
2018-08-14T12:44:15.127Z,21.7
2018-08-14T12:45:15.055Z,21.7
2018-08-14T12:46:14.971Z,21.6
2018-08-14T12:47:14.886Z,21.7
2018-08-14T12:48:15.241Z,21.7
2018-08-14T12:49:15.159Z,21.7
2018-08-14T12:50:15.061Z,21.8
2018-08-14T12:51:14.992Z,21.9
2018-08-14T12:52:14.902Z,21.9
2018-08-14T12:53:14.859Z,21.9
2018-08-14T12:54:14.793Z,21.9
2018-08-14T12:55:14.695Z,21.8
2018-08-14T12:56:14.624Z,21.7
2018-08-14T12:57:14.563Z,21.7
2018-08-14T12:58:14.927Z,21.8
2018-08-14T12:59:14.880Z,21.7
2018-08-14T13:00:14.787Z,21.8
2018-08-14T13:01:14.719Z,21.8
2018-08-14T13:02:14.693Z,21.7
2018-08-14T13:03:14.622Z,21.7
2018-08-14T13:04:14.602Z,21.7
2018-08-14T13:05:14.509Z,21.7
2018-08-14T13:06:14.423Z,21.7
2018-08-14T13:07:14.340Z,21.7
2018-08-14T13:08:15.705Z,21.8
2018-08-14T13:09:16.159Z,21.9
2018-08-14T13:10:16.089Z,21.9
2018-08-14T13:11:16.065Z,21.9
2018-08-14T13:12:16.004Z,21.8
2018-08-14T13:13:18.696Z,21.8
2018-08-14T13:14:18.679Z,21.9
2018-08-14T13:15:18.587Z,21.9
2018-08-14T13:16:18.505Z,21.9
2018-08-14T13:17:18.462Z,21.9
2018-08-14T13:18:22.495Z,21.8
2018-08-14T13:19:22.454Z,21.8
2018-08-14T13:20:22.586Z,21.9
2018-08-14T13:21:22.534Z,21.9
2018-08-14T13:22:22.459Z,21.9
2018-08-14T13:23:22.422Z,21.9
2018-08-14T13:24:22.330Z,21.9
2018-08-14T13:25:22.310Z,21.9
2018-08-14T13:26:22.240Z,21.9
2018-08-14T13:27:26.184Z,21.9
2018-08-14T13:28:26.529Z,22
2018-08-14T13:29:32.097Z,21.9
2018-08-14T13:30:32.021Z,21.9
2018-08-14T13:31:32.947Z,21.9
2018-08-14T13:32:32.855Z,21.9
2018-08-14T13:33:32.778Z,21.9
2018-08-14T13:34:32.689Z,21.9
2018-08-14T13:35:32.663Z,21.9
2018-08-14T13:36:32.592Z,21.9
2018-08-14T13:37:32.512Z,21.9
2018-08-14T13:38:33.420Z,21.9
2018-08-14T13:39:33.359Z,21.9
2018-08-14T13:40:35.990Z,21.9